sensor_id;sensor_type;location;lat;lon;timestamp;pressure;altitude;pressure_sealevel;temperature;humidity
77077;BME280;66003;52.286;104.306;2024-01-30T00:00:02;98183.25;;;-31.58;33.15
77077;BME280;66003;52.286;104.306;2024-01-30T00:02:31;98179.13;;;-31.64;33.11
77077;BME280;66003;52.286;104.306;2024-01-30T00:04:57;98170.09;;;-31.80;33.15
77077;BME280;66003;52.286;104.306;2024-01-30T00:07:23;98185.97;;;-31.75;33.02
77077;BME280;66003;52.286;104.306;2024-01-30T00:09:50;98197.13;;;-31.89;33.46
77077;BME280;66003;52.286;104.306;2024-01-30T00:12:16;98194.00;;;-32.11;33.26
77077;BME280;66003;52.286;104.306;2024-01-30T00:14:42;98189.94;;;-32.21;33.22
77077;BME280;66003;52.286;104.306;2024-01-30T00:17:12;98200.22;;;-32.43;32.98
77077;BME280;66003;52.286;104.306;2024-01-30T00:19:38;98190.16;;;-32.43;32.85
77077;BME280;66003;52.286;104.306;2024-01-30T00:22:04;98202.75;;;-32.43;33.33
77077;BME280;66003;52.286;104.306;2024-01-30T00:24:30;98201.19;;;-32.54;33.01
77077;BME280;66003;52.286;104.306;2024-01-30T00:26:56;98208.75;;;-32.57;32.98
77077;BME280;66003;52.286;104.306;2024-01-30T00:29:22;98194.72;;;-32.80;33.08
77077;BME280;66003;52.286;104.306;2024-01-30T00:31:49;98198.03;;;-32.73;32.94
77077;BME280;66003;52.286;104.306;2024-01-30T00:34:15;98197.09;;;-32.63;32.99
77077;BME280;66003;52.286;104.306;2024-01-30T00:36:41;98191.22;;;-32.60;32.86
77077;BME280;66003;52.286;104.306;2024-01-30T00:39:07;98191.09;;;-32.53;32.69
77077;BME280;66003;52.286;104.306;2024-01-30T00:41:35;98201.16;;;-32.48;33.08
77077;BME280;66003;52.286;104.306;2024-01-30T00:44:01;98203.47;;;-32.31;32.75
77077;BME280;66003;52.286;104.306;2024-01-30T00:46:27;98204.41;;;-32.39;33.01
77077;BME280;66003;52.286;104.306;2024-01-30T00:48:53;98210.03;;;-32.14;33.00
77077;BME280;66003;52.286;104.306;2024-01-30T00:51:20;98211.47;;;-31.93;32.95
77077;BME280;66003;52.286;104.306;2024-01-30T00:53:46;98218.34;;;-32.07;33.09
77077;BME280;66003;52.286;104.306;2024-01-30T00:56:12;98224.13;;;-31.99;33.00
77077;BME280;66003;52.286;104.306;2024-01-30T00:58:39;98228.28;;;-31.93;33.03
77077;BME280;66003;52.286;104.306;2024-01-30T01:01:05;98222.09;;;-31.68;33.04
77077;BME280;66003;52.286;104.306;2024-01-30T01:03:33;98218.13;;;-31.23;33.15
77077;BME280;66003;52.286;104.306;2024-01-30T01:05:59;98223.13;;;-30.66;32.78
77077;BME280;66003;52.286;104.306;2024-01-30T01:08:25;98210.28;;;-30.08;32.57
77077;BME280;66003;52.286;104.306;2024-01-30T01:10:52;98209.75;;;-29.41;32.54
77077;BME280;66003;52.286;104.306;2024-01-30T01:13:18;98201.06;;;-28.92;32.51
77077;BME280;66003;52.286;104.306;2024-01-30T01:15:44;98202.44;;;-28.43;31.64
77077;BME280;66003;52.286;104.306;2024-01-30T01:18:11;98194.25;;;-28.54;31.44
77077;BME280;66003;52.286;104.306;2024-01-30T01:20:37;98194.22;;;-28.19;31.28
77077;BME280;66003;52.286;104.306;2024-01-30T01:23:03;98186.63;;;-27.59;30.36
77077;BME280;66003;52.286;104.306;2024-01-30T01:25:29;98202.16;;;-26.83;30.59
77077;BME280;66003;52.286;104.306;2024-01-30T01:27:55;98186.88;;;-26.56;29.75
77077;BME280;66003;52.286;104.306;2024-01-30T01:30:22;98200.69;;;-26.38;29.21
77077;BME280;66003;52.286;104.306;2024-01-30T01:32:49;98187.31;;;-26.19;28.94
77077;BME280;66003;52.286;104.306;2024-01-30T01:35:24;98185.22;;;-25.83;28.79
77077;BME280;66003;52.286;104.306;2024-01-30T01:37:54;98197.16;;;-25.15;28.61
77077;BME280;66003;52.286;104.306;2024-01-30T01:40:26;98198.59;;;-24.22;28.61
77077;BME280;66003;52.286;104.306;2024-01-30T01:42:54;98195.81;;;-23.38;27.86
77077;BME280;66003;52.286;104.306;2024-01-30T01:45:21;98199.38;;;-22.84;27.65
77077;BME280;66003;52.286;104.306;2024-01-30T01:47:52;98200.22;;;-22.84;27.26
77077;BME280;66003;52.286;104.306;2024-01-30T01:50:20;98186.38;;;-22.45;27.26
77077;BME280;66003;52.286;104.306;2024-01-30T01:52:48;98195.03;;;-22.12;27.58
77077;BME280;66003;52.286;104.306;2024-01-30T01:55:19;98189.56;;;-21.54;27.08
77077;BME280;66003;52.286;104.306;2024-01-30T01:57:47;98188.72;;;-21.06;27.11
77077;BME280;66003;52.286;104.306;2024-01-30T02:00:14;98190.63;;;-20.62;26.06
77077;BME280;66003;52.286;104.306;2024-01-30T02:02:42;98185.56;;;-19.88;25.38
77077;BME280;66003;52.286;104.306;2024-01-30T02:05:09;98175.13;;;-19.28;25.06
77077;BME280;66003;52.286;104.306;2024-01-30T02:07:35;98180.09;;;-19.25;24.30
77077;BME280;66003;52.286;104.306;2024-01-30T02:10:02;98192.13;;;-19.26;24.24
77077;BME280;66003;52.286;104.306;2024-01-30T02:12:30;98188.72;;;-18.98;23.97
77077;BME280;66003;52.286;104.306;2024-01-30T02:14:56;98191.72;;;-18.50;23.30
77077;BME280;66003;52.286;104.306;2024-01-30T02:17:23;98189.16;;;-18.50;22.41
77077;BME280;66003;52.286;104.306;2024-01-30T02:19:50;98177.34;;;-18.01;23.16
77077;BME280;66003;52.286;104.306;2024-01-30T02:22:16;98173.16;;;-17.26;23.33
77077;BME280;66003;52.286;104.306;2024-01-30T02:24:42;98180.44;;;-16.81;21.07
77077;BME280;66003;52.286;104.306;2024-01-30T02:27:08;98176.41;;;-16.86;21.20
77077;BME280;66003;52.286;104.306;2024-01-30T02:29:35;98174.16;;;-17.03;20.13
77077;BME280;66003;52.286;104.306;2024-01-30T02:32:01;98181.56;;;-16.86;19.52
77077;BME280;66003;52.286;104.306;2024-01-30T02:34:27;98181.78;;;-16.89;22.29
77077;BME280;66003;52.286;104.306;2024-01-30T02:36:53;98182.69;;;-17.64;22.53
77077;BME280;66003;52.286;104.306;2024-01-30T02:39:19;98177.84;;;-17.43;22.96
77077;BME280;66003;52.286;104.306;2024-01-30T02:41:45;98176.91;;;-16.44;23.57
77077;BME280;66003;52.286;104.306;2024-01-30T02:44:12;98180.28;;;-15.61;22.72
77077;BME280;66003;52.286;104.306;2024-01-30T02:46:38;98185.44;;;-14.92;22.47
77077;BME280;66003;52.286;104.306;2024-01-30T02:49:04;98172.69;;;-14.84;22.16
77077;BME280;66003;52.286;104.306;2024-01-30T02:51:30;98174.44;;;-15.18;19.71
77077;BME280;66003;52.286;104.306;2024-01-30T02:53:56;98168.56;;;-15.09;18.87
77077;BME280;66003;52.286;104.306;2024-01-30T02:56:22;98166.66;;;-15.07;18.26
77077;BME280;66003;52.286;104.306;2024-01-30T02:58:48;98165.84;;;-14.96;17.95
77077;BME280;66003;52.286;104.306;2024-01-30T03:01:14;98177.13;;;-14.64;17.72
77077;BME280;66003;52.286;104.306;2024-01-30T03:03:40;98174.09;;;-14.69;17.22
77077;BME280;66003;52.286;104.306;2024-01-30T03:06:08;98178.69;;;-14.18;18.91
77077;BME280;66003;52.286;104.306;2024-01-30T03:08:34;98172.38;;;-14.37;18.93
77077;BME280;66003;52.286;104.306;2024-01-30T03:11:00;98179.06;;;-15.79;18.64
77077;BME280;66003;52.286;104.306;2024-01-30T03:13:27;98182.16;;;-17.69;18.38
77077;BME280;66003;52.286;104.306;2024-01-30T03:15:53;98179.38;;;-19.27;19.04
77077;BME280;66003;52.286;104.306;2024-01-30T03:18:20;98181.63;;;-20.24;21.08
77077;BME280;66003;52.286;104.306;2024-01-30T03:20:46;98180.19;;;-21.06;21.57
77077;BME280;66003;52.286;104.306;2024-01-30T03:23:12;98190.31;;;-21.52;22.88
77077;BME280;66003;52.286;104.306;2024-01-30T03:25:38;98199.63;;;-22.01;22.66
77077;BME280;66003;52.286;104.306;2024-01-30T03:28:05;98188.91;;;-22.26;22.99
77077;BME280;66003;52.286;104.306;2024-01-30T03:30:31;98204.25;;;-22.44;23.73
77077;BME280;66003;52.286;104.306;2024-01-30T03:32:57;98198.19;;;-22.58;23.69
77077;BME280;66003;52.286;104.306;2024-01-30T03:35:24;98214.03;;;-22.88;24.32
77077;BME280;66003;52.286;104.306;2024-01-30T03:37:50;98195.28;;;-22.88;24.79
77077;BME280;66003;52.286;104.306;2024-01-30T03:40:16;98206.22;;;-22.85;24.86
77077;BME280;66003;52.286;104.306;2024-01-30T03:42:44;98207.25;;;-22.89;24.97
77077;BME280;66003;52.286;104.306;2024-01-30T03:45:11;98197.50;;;-22.81;25.35
77077;BME280;66003;52.286;104.306;2024-01-30T03:47:37;98193.88;;;-22.58;25.20
77077;BME280;66003;52.286;104.306;2024-01-30T03:50:03;98185.66;;;-22.47;25.21
77077;BME280;66003;52.286;104.306;2024-01-30T03:52:30;98183.22;;;-22.50;25.11
77077;BME280;66003;52.286;104.306;2024-01-30T03:54:57;98185.09;;;-22.54;25.21
77077;BME280;66003;52.286;104.306;2024-01-30T03:57:23;98186.63;;;-22.50;25.40
77077;BME280;66003;52.286;104.306;2024-01-30T03:59:49;98180.38;;;-22.44;25.95
77077;BME280;66003;52.286;104.306;2024-01-30T04:02:15;98181.91;;;-22.23;25.75
77077;BME280;66003;52.286;104.306;2024-01-30T04:04:41;98176.47;;;-22.17;25.83
77077;BME280;66003;52.286;104.306;2024-01-30T04:07:07;98175.50;;;-22.14;25.70
77077;BME280;66003;52.286;104.306;2024-01-30T04:09:33;98171.44;;;-22.01;26.12
77077;BME280;66003;52.286;104.306;2024-01-30T04:11:59;98161.00;;;-21.81;25.91
77077;BME280;66003;52.286;104.306;2024-01-30T04:14:43;98158.66;;;-21.68;26.05
77077;BME280;66003;52.286;104.306;2024-01-30T04:17:31;98161.88;;;-21.65;26.13
77077;BME280;66003;52.286;104.306;2024-01-30T04:19:57;98162.16;;;-21.53;26.10
77077;BME280;66003;52.286;104.306;2024-01-30T04:22:23;98156.78;;;-21.33;26.07
77077;BME280;66003;52.286;104.306;2024-01-30T04:24:49;98161.03;;;-21.16;26.02
77077;BME280;66003;52.286;104.306;2024-01-30T04:27:15;98155.41;;;-21.07;26.11
77077;BME280;66003;52.286;104.306;2024-01-30T04:29:41;98142.22;;;-21.01;26.09
77077;BME280;66003;52.286;104.306;2024-01-30T04:32:08;98145.31;;;-20.95;26.06
77077;BME280;66003;52.286;104.306;2024-01-30T04:34:36;98130.97;;;-20.99;26.19
77077;BME280;66003;52.286;104.306;2024-01-30T04:37:03;98137.19;;;-20.87;25.92
77077;BME280;66003;52.286;104.306;2024-01-30T04:39:29;98132.28;;;-20.76;26.25
77077;BME280;66003;52.286;104.306;2024-01-30T04:41:55;98135.75;;;-20.77;26.18
77077;BME280;66003;52.286;104.306;2024-01-30T04:44:21;98132.13;;;-20.73;26.48
77077;BME280;66003;52.286;104.306;2024-01-30T04:46:47;98126.06;;;-20.72;26.27
77077;BME280;66003;52.286;104.306;2024-01-30T04:49:13;98120.75;;;-20.69;26.07
77077;BME280;66003;52.286;104.306;2024-01-30T04:51:40;98117.84;;;-20.78;26.38
77077;BME280;66003;52.286;104.306;2024-01-30T04:54:06;98115.72;;;-20.70;26.59
77077;BME280;66003;52.286;104.306;2024-01-30T04:56:32;98119.88;;;-20.54;26.86
77077;BME280;66003;52.286;104.306;2024-01-30T04:58:58;98118.44;;;-20.43;26.85
77077;BME280;66003;52.286;104.306;2024-01-30T05:01:24;98117.94;;;-20.34;26.76
77077;BME280;66003;52.286;104.306;2024-01-30T05:03:50;98116.59;;;-20.26;26.88
77077;BME280;66003;52.286;104.306;2024-01-30T05:06:26;98118.53;;;-20.15;26.76
77077;BME280;66003;52.286;104.306;2024-01-30T05:08:53;98120.19;;;-20.14;26.76
77077;BME280;66003;52.286;104.306;2024-01-30T05:11:19;98117.78;;;-20.03;26.95
77077;BME280;66003;52.286;104.306;2024-01-30T05:13:45;98116.06;;;-20.02;27.22
77077;BME280;66003;52.286;104.306;2024-01-30T05:16:12;98120.66;;;-19.93;27.20
77077;BME280;66003;52.286;104.306;2024-01-30T05:18:38;98124.16;;;-19.80;27.47
77077;BME280;66003;52.286;104.306;2024-01-30T05:21:05;98113.97;;;-19.82;27.22
77077;BME280;66003;52.286;104.306;2024-01-30T05:23:32;98114.53;;;-19.76;27.32
77077;BME280;66003;52.286;104.306;2024-01-30T05:25:59;98109.19;;;-19.73;27.41
77077;BME280;66003;52.286;104.306;2024-01-30T05:28:27;98104.97;;;-19.74;27.42
77077;BME280;66003;52.286;104.306;2024-01-30T05:30:53;98110.56;;;-19.68;27.68
77077;BME280;66003;52.286;104.306;2024-01-30T05:33:19;98104.97;;;-19.60;28.10
77077;BME280;66003;52.286;104.306;2024-01-30T05:35:45;98110.19;;;-19.48;27.71
77077;BME280;66003;52.286;104.306;2024-01-30T05:38:11;98098.44;;;-19.52;28.44
77077;BME280;66003;52.286;104.306;2024-01-30T05:40:38;98082.34;;;-19.41;28.32
77077;BME280;66003;52.286;104.306;2024-01-30T05:43:04;98089.31;;;-19.29;28.11
77077;BME280;66003;52.286;104.306;2024-01-30T05:45:30;98087.84;;;-19.33;28.15
77077;BME280;66003;52.286;104.306;2024-01-30T05:47:56;98089.50;;;-19.32;28.21
77077;BME280;66003;52.286;104.306;2024-01-30T05:50:22;98092.00;;;-19.30;28.39
77077;BME280;66003;52.286;104.306;2024-01-30T05:52:49;98095.19;;;-19.27;28.53
77077;BME280;66003;52.286;104.306;2024-01-30T05:55:15;98083.50;;;-19.18;28.78
77077;BME280;66003;52.286;104.306;2024-01-30T05:57:41;98086.91;;;-19.18;28.95
77077;BME280;66003;52.286;104.306;2024-01-30T06:00:07;98071.47;;;-19.18;28.51
77077;BME280;66003;52.286;104.306;2024-01-30T06:02:34;98072.34;;;-19.04;28.52
77077;BME280;66003;52.286;104.306;2024-01-30T06:05:00;98073.06;;;-19.02;28.41
77077;BME280;66003;52.286;104.306;2024-01-30T06:07:27;98068.03;;;-19.04;28.28
77077;BME280;66003;52.286;104.306;2024-01-30T06:09:53;98080.69;;;-19.01;28.59
77077;BME280;66003;52.286;104.306;2024-01-30T06:12:19;98076.47;;;-19.02;28.78
77077;BME280;66003;52.286;104.306;2024-01-30T06:14:45;98068.88;;;-18.91;28.94
77077;BME280;66003;52.286;104.306;2024-01-30T06:17:11;98072.41;;;-18.92;28.42
77077;BME280;66003;52.286;104.306;2024-01-30T06:19:40;98070.34;;;-18.87;28.83
77077;BME280;66003;52.286;104.306;2024-01-30T06:22:07;98069.09;;;-18.94;29.38
77077;BME280;66003;52.286;104.306;2024-01-30T06:24:33;98070.84;;;-18.94;29.44
77077;BME280;66003;52.286;104.306;2024-01-30T06:27:00;98071.75;;;-18.95;30.21
77077;BME280;66003;52.286;104.306;2024-01-30T06:29:26;98065.59;;;-18.93;30.41
77077;BME280;66003;52.286;104.306;2024-01-30T06:31:52;98067.66;;;-18.85;30.54
77077;BME280;66003;52.286;104.306;2024-01-30T06:34:19;98069.00;;;-18.92;31.12
77077;BME280;66003;52.286;104.306;2024-01-30T06:36:45;98061.16;;;-18.91;31.21
77077;BME280;66003;52.286;104.306;2024-01-30T06:39:11;98065.44;;;-19.04;31.63
77077;BME280;66003;52.286;104.306;2024-01-30T06:41:37;98067.81;;;-19.01;32.15
77077;BME280;66003;52.286;104.306;2024-01-30T06:44:03;98059.72;;;-18.95;31.37
77077;BME280;66003;52.286;104.306;2024-01-30T06:46:32;98060.63;;;-18.96;31.39
77077;BME280;66003;52.286;104.306;2024-01-30T06:48:58;98055.38;;;-18.94;31.99
77077;BME280;66003;52.286;104.306;2024-01-30T06:51:24;98052.81;;;-18.94;31.94
77077;BME280;66003;52.286;104.306;2024-01-30T06:53:50;98058.69;;;-18.92;32.41
77077;BME280;66003;52.286;104.306;2024-01-30T06:56:16;98056.41;;;-18.97;33.13
77077;BME280;66003;52.286;104.306;2024-01-30T06:58:50;98045.22;;;-18.83;31.82
77077;BME280;66003;52.286;104.306;2024-01-30T07:01:16;98047.44;;;-18.91;33.05
77077;BME280;66003;52.286;104.306;2024-01-30T07:03:43;98047.56;;;-18.93;33.60
77077;BME280;66003;52.286;104.306;2024-01-30T07:06:09;98046.50;;;-18.90;33.65
77077;BME280;66003;52.286;104.306;2024-01-30T07:08:37;98044.56;;;-18.87;33.20
77077;BME280;66003;52.286;104.306;2024-01-30T07:11:05;98042.97;;;-18.75;32.72
77077;BME280;66003;52.286;104.306;2024-01-30T07:13:32;98039.88;;;-18.80;32.95
77077;BME280;66003;52.286;104.306;2024-01-30T07:15:58;98034.72;;;-18.80;32.46
77077;BME280;66003;52.286;104.306;2024-01-30T07:18:25;98046.88;;;-18.82;33.34
77077;BME280;66003;52.286;104.306;2024-01-30T07:20:51;98047.16;;;-18.74;33.30
77077;BME280;66003;52.286;104.306;2024-01-30T07:23:17;98033.44;;;-18.75;32.88
77077;BME280;66003;52.286;104.306;2024-01-30T07:25:47;98040.78;;;-18.81;32.84
77077;BME280;66003;52.286;104.306;2024-01-30T07:28:16;98047.91;;;-18.72;32.74
77077;BME280;66003;52.286;104.306;2024-01-30T07:30:43;98043.06;;;-18.77;32.30
77077;BME280;66003;52.286;104.306;2024-01-30T07:33:09;98041.63;;;-18.81;33.04
77077;BME280;66003;52.286;104.306;2024-01-30T07:35:36;98043.75;;;-18.75;32.78
77077;BME280;66003;52.286;104.306;2024-01-30T07:38:02;98033.16;;;-18.70;32.07
77077;BME280;66003;52.286;104.306;2024-01-30T07:40:28;98044.59;;;-18.74;32.40
77077;BME280;66003;52.286;104.306;2024-01-30T07:42:55;98047.16;;;-18.74;32.66
77077;BME280;66003;52.286;104.306;2024-01-30T07:45:21;98052.03;;;-18.70;32.74
77077;BME280;66003;52.286;104.306;2024-01-30T07:47:50;98059.44;;;-18.65;32.76
77077;BME280;66003;52.286;104.306;2024-01-30T07:50:16;98037.53;;;-18.58;32.12
77077;BME280;66003;52.286;104.306;2024-01-30T07:52:43;98045.97;;;-18.56;32.63
77077;BME280;66003;52.286;104.306;2024-01-30T07:55:09;98045.88;;;-18.54;32.51
77077;BME280;66003;52.286;104.306;2024-01-30T07:57:38;98046.09;;;-18.57;32.66
77077;BME280;66003;52.286;104.306;2024-01-30T08:00:06;98051.66;;;-18.51;32.41
77077;BME280;66003;52.286;104.306;2024-01-30T08:02:33;98044.34;;;-18.57;32.46
77077;BME280;66003;52.286;104.306;2024-01-30T08:05:00;98046.09;;;-18.57;32.40
77077;BME280;66003;52.286;104.306;2024-01-30T08:07:26;98044.66;;;-18.49;32.15
77077;BME280;66003;52.286;104.306;2024-01-30T08:09:55;98037.56;;;-18.45;32.07
77077;BME280;66003;52.286;104.306;2024-01-30T08:12:21;98048.38;;;-18.40;32.02
77077;BME280;66003;52.286;104.306;2024-01-30T08:14:47;98044.56;;;-18.47;32.32
77077;BME280;66003;52.286;104.306;2024-01-30T08:17:13;98052.69;;;-18.41;31.94
77077;BME280;66003;52.286;104.306;2024-01-30T08:19:39;98046.31;;;-18.48;31.63
77077;BME280;66003;52.286;104.306;2024-01-30T08:22:05;98037.44;;;-18.56;31.08
77077;BME280;66003;52.286;104.306;2024-01-30T08:24:32;98042.72;;;-18.45;30.98
77077;BME280;66003;52.286;104.306;2024-01-30T08:26:58;98041.88;;;-18.46;30.47
77077;BME280;66003;52.286;104.306;2024-01-30T08:29:24;98040.00;;;-18.44;30.37
77077;BME280;66003;52.286;104.306;2024-01-30T08:31:50;98034.13;;;-18.46;30.44
77077;BME280;66003;52.286;104.306;2024-01-30T08:34:16;98044.75;;;-18.50;29.80
77077;BME280;66003;52.286;104.306;2024-01-30T08:36:43;98039.50;;;-18.49;29.93
77077;BME280;66003;52.286;104.306;2024-01-30T08:39:10;98036.19;;;-18.51;29.83
77077;BME280;66003;52.286;104.306;2024-01-30T08:41:36;98040.28;;;-18.61;29.64
77077;BME280;66003;52.286;104.306;2024-01-30T08:44:02;98039.28;;;-18.58;29.62
77077;BME280;66003;52.286;104.306;2024-01-30T08:46:30;98028.75;;;-18.68;29.72
77077;BME280;66003;52.286;104.306;2024-01-30T08:48:56;98044.59;;;-18.74;29.53
77077;BME280;66003;52.286;104.306;2024-01-30T08:51:22;98044.06;;;-18.79;29.47
77077;BME280;66003;52.286;104.306;2024-01-30T08:53:48;98049.63;;;-18.85;29.52
77077;BME280;66003;52.286;104.306;2024-01-30T08:56:15;98053.13;;;-18.86;29.79
77077;BME280;66003;52.286;104.306;2024-01-30T08:58:42;98049.09;;;-18.90;29.49
77077;BME280;66003;52.286;104.306;2024-01-30T09:01:08;98047.28;;;-19.02;29.99
77077;BME280;66003;52.286;104.306;2024-01-30T09:03:34;98055.22;;;-19.06;30.12
77077;BME280;66003;52.286;104.306;2024-01-30T09:06:01;98049.44;;;-19.09;29.96
77077;BME280;66003;52.286;104.306;2024-01-30T09:08:27;98050.13;;;-19.20;30.29
77077;BME280;66003;52.286;104.306;2024-01-30T09:10:53;98047.53;;;-19.20;30.28
77077;BME280;66003;52.286;104.306;2024-01-30T09:13:19;98040.19;;;-19.26;30.48
77077;BME280;66003;52.286;104.306;2024-01-30T09:15:45;98049.13;;;-19.31;30.37
77077;BME280;66003;52.286;104.306;2024-01-30T09:18:11;98052.47;;;-19.44;30.29
77077;BME280;66003;52.286;104.306;2024-01-30T09:20:38;98053.78;;;-19.51;30.52
77077;BME280;66003;52.286;104.306;2024-01-30T09:23:04;98061.75;;;-19.55;30.61
77077;BME280;66003;52.286;104.306;2024-01-30T09:25:30;98061.19;;;-19.60;30.84
77077;BME280;66003;52.286;104.306;2024-01-30T09:27:56;98054.78;;;-19.67;30.96
77077;BME280;66003;52.286;104.306;2024-01-30T09:30:22;98060.03;;;-19.69;31.06
77077;BME280;66003;52.286;104.306;2024-01-30T09:32:48;98063.25;;;-19.80;31.05
77077;BME280;66003;52.286;104.306;2024-01-30T09:35:14;98068.56;;;-19.83;31.17
77077;BME280;66003;52.286;104.306;2024-01-30T09:37:41;98069.03;;;-19.90;31.46
77077;BME280;66003;52.286;104.306;2024-01-30T09:40:07;98067.38;;;-19.91;31.67
77077;BME280;66003;52.286;104.306;2024-01-30T09:42:35;98063.69;;;-20.01;31.50
77077;BME280;66003;52.286;104.306;2024-01-30T09:45:05;98069.59;;;-19.99;31.71
77077;BME280;66003;52.286;104.306;2024-01-30T09:47:42;98068.84;;;-20.01;31.36
77077;BME280;66003;52.286;104.306;2024-01-30T09:50:09;98069.00;;;-20.04;31.29
77077;BME280;66003;52.286;104.306;2024-01-30T09:52:36;98069.19;;;-20.07;31.53
77077;BME280;66003;52.286;104.306;2024-01-30T09:55:03;98066.06;;;-20.12;31.49
77077;BME280;66003;52.286;104.306;2024-01-30T09:57:30;98076.00;;;-20.21;31.06
77077;BME280;66003;52.286;104.306;2024-01-30T09:59:56;98070.94;;;-20.36;31.25
77077;BME280;66003;52.286;104.306;2024-01-30T10:02:23;98080.63;;;-20.41;31.93
77077;BME280;66003;52.286;104.306;2024-01-30T10:04:50;98083.06;;;-20.54;31.88
77077;BME280;66003;52.286;104.306;2024-01-30T10:07:18;98082.81;;;-20.49;32.45
77077;BME280;66003;52.286;104.306;2024-01-30T10:09:45;98076.47;;;-20.58;32.14
77077;BME280;66003;52.286;104.306;2024-01-30T10:12:12;98077.56;;;-20.62;32.37
77077;BME280;66003;52.286;104.306;2024-01-30T10:14:42;98088.56;;;-20.60;32.50
77077;BME280;66003;52.286;104.306;2024-01-30T10:17:09;98078.81;;;-20.69;32.41
77077;BME280;66003;52.286;104.306;2024-01-30T10:19:36;98092.31;;;-20.66;32.36
77077;BME280;66003;52.286;104.306;2024-01-30T10:22:03;98089.34;;;-20.74;32.16
77077;BME280;66003;52.286;104.306;2024-01-30T10:24:33;98099.63;;;-20.74;32.34
77077;BME280;66003;52.286;104.306;2024-01-30T10:26:59;98098.22;;;-20.79;32.37
77077;BME280;66003;52.286;104.306;2024-01-30T10:29:25;98103.94;;;-20.90;32.69
77077;BME280;66003;52.286;104.306;2024-01-30T10:32:01;98109.00;;;-20.89;33.52
77077;BME280;66003;52.286;104.306;2024-01-30T10:34:28;98109.06;;;-20.90;33.32
77077;BME280;66003;52.286;104.306;2024-01-30T10:37:09;98109.34;;;-20.95;33.33
77077;BME280;66003;52.286;104.306;2024-01-30T10:39:39;98118.19;;;-21.00;34.00
77077;BME280;66003;52.286;104.306;2024-01-30T10:42:09;98108.75;;;-21.00;34.16
77077;BME280;66003;52.286;104.306;2024-01-30T10:44:43;98114.56;;;-20.96;33.90
77077;BME280;66003;52.286;104.306;2024-01-30T10:47:12;98121.91;;;-20.90;33.96
77077;BME280;66003;52.286;104.306;2024-01-30T10:49:41;98120.47;;;-20.94;34.12
77077;BME280;66003;52.286;104.306;2024-01-30T10:52:09;98117.38;;;-21.01;34.33
77077;BME280;66003;52.286;104.306;2024-01-30T10:54:36;98120.78;;;-21.00;34.04
77077;BME280;66003;52.286;104.306;2024-01-30T10:57:03;98123.41;;;-21.02;34.25
77077;BME280;66003;52.286;104.306;2024-01-30T10:59:30;98125.25;;;-21.04;34.50
77077;BME280;66003;52.286;104.306;2024-01-30T11:01:58;98131.94;;;-21.01;34.85
77077;BME280;66003;52.286;104.306;2024-01-30T11:04:25;98132.84;;;-21.02;34.28
77077;BME280;66003;52.286;104.306;2024-01-30T11:06:51;98135.69;;;-21.07;33.68
77077;BME280;66003;52.286;104.306;2024-01-30T11:09:19;98130.94;;;-21.14;33.79
77077;BME280;66003;52.286;104.306;2024-01-30T11:11:58;98133.72;;;-21.17;34.50
77077;BME280;66003;52.286;104.306;2024-01-30T11:14:32;98138.91;;;-21.19;33.71
77077;BME280;66003;52.286;104.306;2024-01-30T11:16:59;98139.88;;;-21.37;33.73
77077;BME280;66003;52.286;104.306;2024-01-30T11:19:26;98137.75;;;-21.45;34.12
77077;BME280;66003;52.286;104.306;2024-01-30T11:21:53;98147.53;;;-21.51;34.06
77077;BME280;66003;52.286;104.306;2024-01-30T11:24:20;98157.88;;;-21.53;33.62
77077;BME280;66003;52.286;104.306;2024-01-30T11:26:55;98150.88;;;-21.67;33.93
77077;BME280;66003;52.286;104.306;2024-01-30T11:29:27;98154.50;;;-21.71;34.22
77077;BME280;66003;52.286;104.306;2024-01-30T11:31:55;98157.88;;;-21.70;34.84
77077;BME280;66003;52.286;104.306;2024-01-30T11:34:21;98161.22;;;-21.68;34.54
77077;BME280;66003;52.286;104.306;2024-01-30T11:36:52;98156.91;;;-21.68;34.16
77077;BME280;66003;52.286;104.306;2024-01-30T11:39:29;98155.47;;;-21.73;34.21
77077;BME280;66003;52.286;104.306;2024-01-30T11:41:56;98158.94;;;-21.74;34.76
77077;BME280;66003;52.286;104.306;2024-01-30T11:44:23;98166.63;;;-21.74;33.90
77077;BME280;66003;52.286;104.306;2024-01-30T11:46:51;98160.09;;;-21.80;33.84
77077;BME280;66003;52.286;104.306;2024-01-30T11:49:18;98158.84;;;-21.88;34.41
77077;BME280;66003;52.286;104.306;2024-01-30T11:51:47;98165.31;;;-21.81;34.72
77077;BME280;66003;52.286;104.306;2024-01-30T11:54:18;98161.63;;;-21.93;34.15
77077;BME280;66003;52.286;104.306;2024-01-30T11:56:44;98175.47;;;-21.97;34.68
77077;BME280;66003;52.286;104.306;2024-01-30T11:59:11;98165.22;;;-21.97;34.83
77077;BME280;66003;52.286;104.306;2024-01-30T12:01:37;98164.03;;;-22.07;35.40
77077;BME280;66003;52.286;104.306;2024-01-30T12:04:04;98159.81;;;-22.08;35.70
77077;BME280;66003;52.286;104.306;2024-01-30T12:06:34;98165.75;;;-22.08;35.83
77077;BME280;66003;52.286;104.306;2024-01-30T12:09:03;98185.38;;;-22.07;36.24
77077;BME280;66003;52.286;104.306;2024-01-30T12:11:46;98190.50;;;-22.07;36.50
77077;BME280;66003;52.286;104.306;2024-01-30T12:14:12;98185.75;;;-22.14;36.99
77077;BME280;66003;52.286;104.306;2024-01-30T12:16:39;98187.50;;;-22.15;36.95
77077;BME280;66003;52.286;104.306;2024-01-30T12:19:07;98196.91;;;-22.15;36.98
77077;BME280;66003;52.286;104.306;2024-01-30T12:21:34;98187.19;;;-22.09;35.96
77077;BME280;66003;52.286;104.306;2024-01-30T12:24:01;98188.56;;;-22.02;35.27
77077;BME280;66003;52.286;104.306;2024-01-30T12:26:27;98187.41;;;-22.13;36.02
77077;BME280;66003;52.286;104.306;2024-01-30T12:28:56;98191.72;;;-22.14;35.19